Time;durP1;ratioP1;P1;durP2;ratioP2;P2;SDS_P1;SDS_P2;PMS_P1;PMS_P2;Temp;Humidity;BMP_temperature;BMP_pressure;BME280_temperature;BME280_humidity;BME280_pressure;Samples;Min_cycle;Max_cycle;Signal;HPM_P1;HPM_P2
2022/01/12 00:00:29;;;;;;;35.42;15.50;;;;;;;2.79;100.00;103476.19;4918679;29;20040;-79
2022/01/12 00:02:55;;;;;;;42.00;18.33;;;;;;;2.85;100.00;103485.59;4912206;29;20103;-79
2022/01/12 00:05:20;;;;;;;39.85;15.43;;;;;;;2.73;100.00;103465.88;4912460;29;20131;-79
2022/01/12 00:07:49;;;;;;;37.28;15.32;;;;;;;2.81;100.00;103474.41;4922145;29;20035;-79
2022/01/12 00:10:16;;;;;;;43.42;16.23;;;;;;;2.87;100.00;103468.16;4919701;29;20106;-79
2022/01/12 00:12:42;;;;;;;37.70;14.50;;;;;;;2.85;100.00;103465.63;4925083;29;20055;-78
2022/01/12 00:15:08;;;;;;;36.75;16.23;;;;;;;2.86;100.00;103464.69;4932362;29;20032;-79
2022/01/12 00:17:33;;;;;;;41.65;16.55;;;;;;;2.88;100.00;103451.63;4926785;29;20040;-79
2022/01/12 00:19:58;;;;;;;38.42;16.67;;;;;;;2.92;100.00;103461.09;4897616;29;20115;-79
2022/01/12 00:22:24;;;;;;;44.38;16.27;;;;;;;2.93;100.00;103465.41;4899261;29;20044;-79
2022/01/12 00:35:33;;;;;;;71.15;21.33;;;;;;;2.75;100.00;103438.03;4922643;29;20044;-79
2022/01/12 00:37:58;;;;;;;46.95;17.08;;;;;;;2.61;100.00;103440.97;4882079;29;20028;-79
2022/01/12 00:40:23;;;;;;;49.95;17.80;;;;;;;2.82;100.00;103462.22;4899506;29;20056;-79
2022/01/12 00:42:49;;;;;;;60.63;18.45;;;;;;;2.81;100.00;103463.97;4911629;29;20067;-77
2022/01/12 00:45:14;;;;;;;45.22;17.33;;;;;;;2.80;100.00;103441.38;4924506;29;20035;-77
2022/01/12 00:47:40;;;;;;;53.42;16.33;;;;;;;2.79;100.00;103434.44;4897374;29;20040;-79
2022/01/12 00:50:06;;;;;;;51.95;17.60;;;;;;;2.92;100.00;103455.88;4921877;29;20028;-79
2022/01/12 00:52:32;;;;;;;57.55;17.42;;;;;;;2.95;100.00;103460.16;4901312;29;20067;-79
2022/01/12 00:54:57;;;;;;;55.20;16.77;;;;;;;2.93;100.00;103451.53;4924147;29;20028;-79
2022/01/12 00:57:22;;;;;;;54.63;16.80;;;;;;;2.99;100.00;103470.50;4912340;29;20092;-79
2022/01/12 00:59:48;;;;;;;58.65;16.45;;;;;;;2.98;100.00;103470.53;4911573;29;20060;-79
2022/01/12 01:02:14;;;;;;;56.22;17.33;;;;;;;2.99;100.00;103467.88;4907101;29;20061;-79
2022/01/12 01:04:40;;;;;;;50.50;16.58;;;;;;;2.99;100.00;103462.66;4900660;29;20447;-78
2022/01/12 01:07:05;;;;;;;62.00;18.80;;;;;;;3.00;100.00;103460.91;4912516;29;20056;-78
2022/01/12 01:09:33;;;;;;;59.70;16.27;;;;;;;3.02;100.00;103466.94;4909469;29;20084;-78
2022/01/12 01:11:59;;;;;;;51.90;15.93;;;;;;;2.95;100.00;103441.91;4905651;29;20115;-78
2022/01/12 01:14:43;;;;;;;66.55;19.50;;;;;;;2.93;100.00;103480.22;4896156;29;20127;-79
2022/01/12 01:27:51;;;;;;;63.13;16.73;;;;;;;3.13;100.00;103526.72;4912859;29;20048;-78
2022/01/12 01:30:16;;;;;;;73.63;17.45;;;;;;;3.01;100.00;103512.22;4913354;29;20031;-78
2022/01/12 01:32:43;;;;;;;81.80;16.90;;;;;;;3.14;100.00;103531.06;4896768;29;20062;-78
2022/01/12 01:35:09;;;;;;;93.07;17.80;;;;;;;3.15;100.00;103531.00;4914383;29;20027;-79
2022/01/12 01:37:34;;;;;;;82.65;15.60;;;;;;;3.17;100.00;103533.59;4904954;29;20523;-78
2022/01/12 01:40:00;;;;;;;55.42;15.23;;;;;;;3.03;100.00;103515.66;4907772;29;20036;-78
2022/01/12 01:42:39;;;;;;;87.82;19.33;;;;;;;3.07;100.00;103527.69;4921532;29;20040;-78
2022/01/12 01:53:20;;;;;;;51.03;14.80;;;;;;;3.18;100.00;103546.59;4926464;29;20135;-78
2022/01/12 01:55:46;;;;;;;35.42;14.40;;;;;;;3.27;100.00;103576.84;4902651;29;20041;-78
2022/01/12 01:58:11;;;;;;;53.10;14.45;;;;;;;3.27;100.00;103572.47;4924403;29;20026;-78
2022/01/12 02:00:37;;;;;;;40.50;13.88;;;;;;;3.10;100.00;103558.97;4900272;29;20028;-76
2022/01/12 02:03:03;;;;;;;37.47;12.63;;;;;;;3.17;100.00;103580.56;4919671;29;20040;-76
2022/01/12 02:05:28;;;;;;;46.78;15.05;;;;;;;3.14;100.00;103575.41;4881046;29;20092;-76
2022/01/12 02:07:54;;;;;;;45.22;13.82;;;;;;;3.28;100.00;103610.72;4896812;29;20087;-76
2022/01/12 02:10:20;;;;;;;33.95;13.75;;;;;;;3.27;100.00;103609.03;4923577;29;20044;-76
2022/01/12 02:12:46;;;;;;;55.85;15.25;;;;;;;3.23;100.00;103596.94;4923614;29;20028;-76
2022/01/12 02:15:22;;;;;;;51.03;15.95;;;;;;;3.16;100.00;103578.81;4884623;29;20122;-76
2022/01/12 02:18:05;;;;;;;38.75;13.93;;;;;;;3.28;100.00;103600.28;4924416;29;20123;-76
2022/01/12 02:40:46;;;;;;;26.92;11.20;;;;;;;3.39;100.00;103576.53;4859074;29;20066;-76
2022/01/12 02:43:16;;;;;;;27.85;11.95;;;;;;;3.47;100.00;103584.22;4859590;29;20071;-77
2022/01/12 02:53:43;;;;;;;24.85;11.57;;;;;;;3.42;100.00;103566.03;4869128;29;20061;-76
2022/01/12 02:56:16;;;;;;;43.22;11.55;;;;;;;3.34;100.00;103547.09;4859797;29;20053;-76
2022/01/12 02:58:44;;;;;;;29.35;10.30;;;;;;;3.41;100.00;103568.69;4854080;29;20040;-76
2022/01/12 03:03:58;;;;;;;35.53;11.43;;;;;;;3.19;100.00;103550.06;4867996;29;20038;-76
2022/01/12 03:06:29;;;;;;;31.83;11.68;;;;;;;3.11;100.00;103560.66;4860552;29;20041;-76
2022/01/12 03:08:55;;;;;;;25.30;11.20;;;;;;;3.10;100.00;103572.00;4836112;29;20754;-76
2022/01/12 03:11:22;;;;;;;31.10;11.93;;;;;;;3.02;100.00;103581.75;4871663;29;20033;-76
2022/01/12 03:13:49;;;;;;;30.23;13.10;;;;;;;2.91;100.00;103568.09;4875404;29;20079;-78
2022/01/12 03:16:16;;;;;;;33.05;11.65;;;;;;;2.77;100.00;103560.56;4883613;29;20167;-76
2022/01/12 03:18:44;;;;;;;23.83;10.15;;;;;;;2.79;100.00;103579.66;4915065;29;20038;-76
2022/01/12 03:21:10;;;;;;;30.83;10.73;;;;;;;2.74;100.00;103582.34;4894227;29;20114;-76
2022/01/12 03:23:36;;;;;;;33.45;11.65;;;;;;;2.60;100.00;103564.38;4898462;29;20043;-76
2022/01/12 03:26:01;;;;;;;27.70;11.23;;;;;;;2.62;100.00;103588.66;4906626;29;20032;-76
2022/01/12 03:28:27;;;;;;;28.08;11.95;;;;;;;2.57;100.00;103585.31;4924525;29;20062;-78
2022/01/12 03:30:55;;;;;;;29.05;11.00;;;;;;;2.57;100.00;103598.34;4915458;29;20051;-76
2022/01/12 03:34:10;;;;;;;28.02;9.73;;;;;;;2.45;100.00;103588.16;4929435;29;20063;-77
2022/01/12 03:38:51;;;;;;;76.88;12.25;;;;;;;2.39;100.00;103604.75;4928119;29;20047;-76
2022/01/12 03:41:17;;;;;;;151.90;14.70;;;;;;;2.34;100.00;103598.78;4908574;29;20063;-76
2022/01/12 03:43:43;;;;;;;117.47;13.48;;;;;;;2.33;100.00;103606.63;4926994;29;20032;-76
2022/01/12 03:46:09;;;;;;;178.95;14.93;;;;;;;2.25;100.00;103589.38;4913710;29;20035;-76
2022/01/12 03:48:35;;;;;;;137.98;15.23;;;;;;;2.28;100.00;103606.69;4923510;29;20039;-76
2022/01/12 03:51:00;;;;;;;73.88;9.63;;;;;;;2.26;100.00;103611.09;4906943;29;20107;-76
2022/01/12 03:53:25;;;;;;;82.25;8.85;;;;;;;2.24;100.00;103618.06;4912173;29;20039;-76
2022/01/12 03:55:51;;;;;;;82.78;9.60;;;;;;;2.28;100.00;103609.31;4912446;29;20027;-76
2022/01/12 03:58:16;;;;;;;75.40;10.13;;;;;;;2.20;100.00;103599.03;4896618;29;20449;-77
2022/01/12 04:00:42;;;;;;;51.90;9.88;;;;;;;2.34;100.00;103614.41;4896699;29;20119;-77
2022/01/12 04:03:08;;;;;;;141.88;14.63;;;;;;;2.38;100.00;103599.59;4913483;29;20068;-78
2022/01/12 04:08:21;;;;;;;93.28;12.63;;;;;;;2.37;100.00;103601.31;4924169;29;20059;-76
2022/01/12 04:10:48;;;;;;;177.23;13.75;;;;;;;2.37;100.00;103605.66;4912614;29;20047;-76
2022/01/12 04:13:15;;;;;;;122.10;11.32;;;;;;;2.34;100.00;103597.94;4909139;29;20032;-76
2022/01/12 04:15:49;;;;;;;46.58;7.28;;;;;;;1.99;100.00;103560.34;4907101;29;20031;-76
2022/01/12 04:18:15;;;;;;;49.75;8.98;;;;;;;2.21;100.00;103597.28;4912059;29;20052;-76
2022/01/12 04:20:48;;;;;;;54.63;8.32;;;;;;;2.11;100.00;103595.72;4897002;29;20067;-78
2022/01/12 04:23:17;;;;;;;47.28;8.05;;;;;;;2.14;100.00;103608.72;4896372;29;20124;-76
2022/01/12 04:25:47;;;;;;;22.15;6.70;;;;;;;2.00;100.00;103593.31;4905276;29;20483;-77
2022/01/12 04:28:15;;;;;;;26.80;6.80;;;;;;;1.90;100.00;103592.63;4911939;29;20487;-76
2022/01/12 04:30:41;;;;;;;11.93;5.63;;;;;;;1.92;100.00;103606.47;4906816;29;20099;-76
2022/01/12 04:33:07;;;;;;;40.33;8.00;;;;;;;1.78;100.00;103591.06;4913464;29;20032;-77
2022/01/12 04:35:36;;;;;;;16.95;6.57;;;;;;;1.87;100.00;103603.06;4913891;29;20530;-76
2022/01/12 04:38:05;;;;;;;51.05;7.53;;;;;;;1.64;100.00;103580.03;4908245;29;20037;-76
2022/01/12 04:40:31;;;;;;;78.15;8.75;;;;;;;1.60;100.00;103591.38;4908752;29;20040;-76
2022/01/12 04:42:57;;;;;;;100.80;9.90;;;;;;;1.54;100.00;103594.94;4909296;29;20039;-76
2022/01/12 04:50:24;;;;;;;;;;;;;;;1.43;100.00;103597.69;4915046;29;20039;-76
2022/01/12 04:52:50;;;;;;;90.28;9.30;;;;;;;1.27;100.00;103588.41;4923900;29;20315;-76
2022/01/12 04:55:15;;;;;;;81.85;9.50;;;;;;;1.05;100.00;103566.19;4911221;29;20035;-76
2022/01/12 04:57:41;;;;;;;64.10;10.15;;;;;;;1.07;100.00;103591.31;4921574;29;20546;-77
2022/01/12 05:00:15;;;;;;;60.55;7.88;;;;;;;1.01;100.00;103599.19;4923849;29;20036;-77
2022/01/12 05:13:26;;;;;;;21.48;6.32;;;;;;;0.75;100.00;103613.38;4922913;29;20335;-76
2022/01/12 05:15:52;;;;;;;23.83;5.55;;;;;;;0.71;100.00;103616.88;4924521;29;20050;-76
2022/01/12 05:18:18;;;;;;;10.25;5.35;;;;;;;0.86;100.00;103635.78;4927267;29;20102;-77
2022/01/12 05:20:45;;;;;;;11.32;5.55;;;;;;;0.74;100.00;103618.56;4895015;29;20546;-77
2022/01/12 05:23:10;;;;;;;12.35;4.32;;;;;;;0.67;100.00;103615.19;4899965;29;20032;-76
2022/01/12 05:25:36;;;;;;;17.95;6.13;;;;;;;0.78;100.00;103630.66;4902653;29;20042;-77
2022/01/12 05:28:01;;;;;;;7.80;4.30;;;;;;;0.77;100.00;103631.56;4917627;29;20365;-76
2022/01/12 05:30:27;;;;;;;68.57;8.05;;;;;;;0.69;100.00;103623.81;4923609;29;20480;-77
2022/01/12 05:32:52;;;;;;;38.85;6.63;;;;;;;0.85;100.00;103647.03;4916326;29;20399;-76
2022/01/12 05:35:19;;;;;;;80.25;8.25;;;;;;;0.85;100.00;103639.25;4924220;29;20038;-76
2022/01/12 05:37:45;;;;;;;51.10;6.47;;;;;;;0.91;100.00;103644.38;4900796;29;20114;-76
2022/01/12 05:40:13;;;;;;;79.82;7.13;;;;;;;0.81;100.00;103634.09;4922450;29;20042;-76
2022/01/12 05:42:38;;;;;;;70.47;8.10;;;;;;;0.78;100.00;103623.75;4909200;29;20036;-76
2022/01/12 05:45:08;;;;;;;65.85;7.30;;;;;;;0.93;100.00;103647.81;4899375;29;20038;-76
2022/01/12 05:50:03;;;;;;;59.55;6.00;;;;;;;0.82;100.00;103651.41;4901755;29;20260;-76
2022/01/12 05:52:29;;;;;;;14.45;5.18;;;;;;;0.69;100.00;103634.22;4915459;29;20036;-76
2022/01/12 05:54:54;;;;;;;23.50;5.53;;;;;;;0.82;100.00;103660.94;4907328;29;20039;-76
2022/01/12 05:57:20;;;;;;;9.73;5.60;;;;;;;0.73;100.00;103651.50;4900109;29;20039;-76
2022/01/12 05:59:45;;;;;;;10.05;5.38;;;;;;;0.74;100.00;103650.66;4890940;29;20027;-76
2022/01/12 06:02:11;;;;;;;29.00;5.75;;;;;;;0.72;100.00;103649.81;4902237;29;20074;-76
2022/01/12 06:04:37;;;;;;;16.15;4.95;;;;;;;0.63;100.00;103639.50;4900349;29;20036;-76
2022/01/12 06:07:02;;;;;;;9.25;4.97;;;;;;;0.85;100.00;103679.13;4889929;29;20028;-76
2022/01/12 06:09:28;;;;;;;15.20;5.18;;;;;;;0.87;100.00;103684.28;4901688;29;20034;-76
2022/01/12 06:11:53;;;;;;;27.85;6.80;;;;;;;0.68;100.00;103649.84;4920355;29;20059;-76
2022/01/12 06:14:20;;;;;;;30.45;4.90;;;;;;;0.85;100.00;103670.44;4904059;29;20096;-76
2022/01/12 06:16:46;;;;;;;26.90;5.28;;;;;;;0.88;100.00;103679.09;4882079;29;20063;-76
2022/01/12 06:19:12;;;;;;;59.42;6.18;;;;;;;0.89;100.00;103677.34;4920754;29;20620;-76
2022/01/12 06:21:38;;;;;;;6.90;4.53;;;;;;;0.84;100.00;103674.78;4904909;29;20040;-77
2022/01/12 06:24:04;;;;;;;35.85;5.57;;;;;;;0.83;100.00;103686.09;4894014;29;20028;-79
2022/01/12 06:26:29;;;;;;;25.88;10.43;;;;;;;0.81;100.00;103686.09;4904894;29;20071;-77
2022/01/12 06:29:23;;;;;;;128.00;45.63;;;;;;;0.79;100.00;103689.59;4911162;29;20050;-78
2022/01/12 06:31:43;;;;;;;84.63;33.55;;;;;;;0.71;100.00;103683.59;4917445;29;20066;-80
2022/01/12 06:34:09;;;;;;;109.57;43.47;;;;;;;0.68;100.00;103676.72;4919865;29;20602;-80
2022/01/12 06:36:34;;;;;;;95.07;32.38;;;;;;;0.65;100.00;103684.53;4916634;29;20028;-80
2022/01/12 06:38:59;;;;;;;38.22;10.82;;;;;;;0.75;100.00;103696.56;4887008;29;20270;-77
2022/01/12 06:41:25;;;;;;;137.05;24.92;;;;;;;0.72;100.00;103693.13;4913437;29;20071;-75
2022/01/12 06:43:51;;;;;;;56.78;9.18;;;;;;;0.68;100.00;103700.09;4914598;29;20039;-79
2022/01/12 06:46:22;;;;;;;46.55;13.73;;;;;;;0.58;100.00;103686.31;4916471;29;20063;-78
2022/01/12 06:48:48;;;;;;;38.95;8.43;;;;;;;0.67;100.00;103700.97;4920660;29;20056;-80
2022/01/12 06:51:14;;;;;;;50.45;8.93;;;;;;;0.52;100.00;103694.22;4915285;29;20301;-80
2022/01/12 06:53:39;;;;;;;42.10;10.25;;;;;;;0.63;100.00;103714.00;4916316;29;20027;-79
2022/01/12 06:56:05;;;;;;;50.65;8.73;;;;;;;0.52;100.00;103702.00;4909452;29;20626;-79
2022/01/12 06:58:31;;;;;;;56.00;10.55;;;;;;;0.58;100.00;103719.25;4909719;29;20028;-79
2022/01/12 07:00:56;;;;;;;28.42;6.47;;;;;;;0.53;100.00;103718.44;4898887;29;20477;-79
2022/01/12 07:03:22;;;;;;;19.38;10.05;;;;;;;0.47;100.00;103710.69;4920498;29;20115;-79
2022/01/12 07:05:47;;;;;;;27.27;8.68;;;;;;;0.50;100.00;103718.47;4927791;29;20134;-80
2022/01/12 07:08:13;;;;;;;55.35;19.60;;;;;;;0.46;100.00;103732.34;4908038;29;20484;-79
2022/01/12 07:10:39;;;;;;;76.80;21.00;;;;;;;0.34;100.00;103720.34;4918573;29;20087;-79
2022/01/12 07:13:04;;;;;;;41.40;15.80;;;;;;;0.28;100.00;103729.03;4924451;29;20108;-79
2022/01/12 07:15:30;;;;;;;32.55;5.93;;;;;;;0.09;100.00;103722.28;4892852;29;20032;-79
2022/01/12 07:17:55;;;;;;;50.45;10.98;;;;;;;0.08;100.00;103734.38;4913373;29;20063;-79
2022/01/12 07:20:20;;;;;;;32.45;6.45;;;;;;;0.09;100.00;103745.66;4895213;29;20047;-78
2022/01/12 07:22:46;;;;;;;10.52;4.28;;;;;;;0.06;100.00;103743.91;4915759;29;20131;-79
2022/01/12 07:25:11;;;;;;;12.30;4.47;;;;;;;0.02;100.00;103746.56;4905158;29;20063;-79
2022/01/12 07:27:39;;;;;;;24.92;6.93;;;;;;;-0.07;100.00;103743.13;4898836;29;20023;-79
2022/01/12 07:30:05;;;;;;;36.42;7.35;;;;;;;-0.05;100.00;103769.97;4916357;29;20115;-80
2022/01/12 07:32:31;;;;;;;9.57;4.07;;;;;;;-0.14;100.00;103759.63;4906888;29;20051;-79
2022/01/12 07:34:56;;;;;;;16.52;4.88;;;;;;;-0.37;100.00;103753.69;4917555;29;20074;-79
2022/01/12 07:37:22;;;;;;;9.43;4.70;;;;;;;-0.35;100.00;103768.38;4902553;29;20131;-79
2022/01/12 07:39:48;;;;;;;30.45;5.10;;;;;;;-0.38;100.00;103775.34;4890046;29;20475;-79
2022/01/12 07:42:13;;;;;;;35.58;7.82;;;;;;;-0.43;100.00;103762.41;4913093;29;20049;-77
2022/01/12 07:44:39;;;;;;;46.60;5.75;;;;;;;-0.60;100.00;103741.72;4903062;29;20039;-77
2022/01/12 07:47:05;;;;;;;40.55;4.85;;;;;;;-0.66;100.00;103736.53;4894248;29;20038;-77
2022/01/12 07:49:31;;;;;;;20.77;6.32;;;;;;;-0.73;100.00;103743.50;4916264;29;20092;-77
2022/01/12 07:51:57;;;;;;;51.88;5.85;;;;;;;-0.66;100.00;103752.09;4898725;29;20581;-77
2022/01/12 07:54:22;;;;;;;35.95;9.07;;;;;;;-0.71;100.00;103751.28;4905855;29;20024;-77
2022/01/12 07:56:48;;;;;;;16.35;4.68;;;;;;;-0.76;100.00;103756.47;4898656;29;20035;-78
2022/01/12 07:59:14;;;;;;;13.88;4.45;;;;;;;-0.71;100.00;103759.06;4895109;29;20088;-78
2022/01/12 08:01:39;;;;;;;21.80;7.18;;;;;;;-0.83;100.00;103749.56;4914118;29;20037;-77
2022/01/12 08:04:04;;;;;;;62.65;5.85;;;;;;;-0.67;100.00;103760.78;4905566;29;20067;-77
2022/01/12 08:06:30;;;;;;;30.52;5.00;;;;;;;-0.55;100.00;103773.66;4889384;29;20033;-78
2022/01/12 08:08:56;;;;;;;29.15;4.53;;;;;;;-0.44;100.00;103771.88;4912265;29;20544;-79
2022/01/12 08:11:22;;;;;;;38.42;5.78;;;;;;;-0.30;100.00;103776.19;4899862;29;20051;-77
2022/01/12 08:13:49;;;;;;;16.27;6.25;;;;;;;-0.32;100.00;103768.41;4916513;29;20401;-78
2022/01/12 08:16:14;;;;;;;15.85;5.18;;;;;;;-0.15;100.00;103791.66;4902302;29;20039;-79
2022/01/12 08:18:40;;;;;;;29.65;5.47;;;;;;;-0.06;100.00;103794.22;4901701;29;20028;-77
2022/01/12 08:21:06;;;;;;;26.35;4.25;;;;;;;0.02;100.00;103790.69;4919255;29;20594;-77
2022/01/12 08:23:33;;;;;;;13.80;3.90;;;;;;;0.08;100.00;103795.84;4893295;29;20082;-75
2022/01/12 08:25:58;;;;;;;30.85;6.93;;;;;;;-0.15;100.00;103755.31;4909714;29;20039;-75
2022/01/12 08:28:23;;;;;;;9.52;6.82;;;;;;;0.15;100.00;103800.13;4892670;29;20029;-76
2022/01/12 08:30:49;;;;;;;23.80;6.70;;;;;;;0.17;100.00;103813.97;4888259;29;20024;-77
2022/01/12 08:33:15;;;;;;;10.60;6.70;;;;;;;0.04;100.00;103804.53;4917759;29;20037;-76
2022/01/12 08:35:41;;;;;;;11.27;5.63;;;;;;;0.13;100.00;103820.94;4891372;29;20041;-77
2022/01/12 08:38:07;;;;;;;12.77;5.03;;;;;;;0.24;100.00;103812.19;4896724;29;20036;-78
2022/01/12 08:40:32;;;;;;;7.95;5.90;;;;;;;0.45;100.00;103822.44;4913330;29;20428;-78
2022/01/12 08:42:58;;;;;;;5.20;3.97;;;;;;;0.57;100.00;103824.97;4908487;29;20039;-78
2022/01/12 08:45:24;;;;;;;6.43;3.78;;;;;;;0.59;100.00;103823.22;4892738;29;20036;-78
2022/01/12 08:47:49;;;;;;;30.55;5.00;;;;;;;0.40;100.00;103814.69;4906466;29;20036;-78
2022/01/12 08:50:15;;;;;;;7.88;4.20;;;;;;;0.32;100.00;103806.06;4916602;29;20563;-78
2022/01/12 08:52:45;;;;;;;16.85;4.60;;;;;;;0.39;100.00;103820.78;4916819;29;20050;-78
2022/01/12 08:55:13;;;;;;;11.13;4.80;;;;;;;0.35;100.00;103820.81;4925592;29;20598;-78
2022/01/12 08:57:38;;;;;;;8.68;5.57;;;;;;;0.37;100.00;103829.41;4924123;29;20122;-78
2022/01/12 09:00:08;;;;;;;50.35;6.72;;;;;;;0.39;100.00;103825.06;4908259;29;20159;-78
2022/01/12 09:02:33;;;;;;;18.67;3.78;;;;;;;0.54;100.00;103826.72;4909444;29;20024;-78
2022/01/12 09:04:59;;;;;;;33.30;4.55;;;;;;;0.60;100.00;103831.88;4921909;29;20028;-78
2022/01/12 09:07:24;;;;;;;43.88;7.15;;;;;;;0.51;100.00;103839.75;4915979;29;20040;-78
2022/01/12 09:09:49;;;;;;;12.15;3.83;;;;;;;0.47;100.00;103848.44;4917105;29;20024;-77
2022/01/12 09:12:15;;;;;;;63.88;5.82;;;;;;;0.59;100.00;103861.34;4921120;29;20020;-77
2022/01/12 09:14:41;;;;;;;38.67;6.13;;;;;;;0.56;100.00;103843.16;4892985;29;20638;-78
2022/01/12 09:17:13;;;;;;;17.00;5.00;;;;;;;0.76;100.00;103856.88;4900616;29;20036;-77
2022/01/12 09:19:38;;;;;;;24.55;4.90;;;;;;;0.86;100.00;103869.78;4902423;29;20016;-77
2022/01/12 09:22:04;;;;;;;37.45;4.72;;;;;;;0.81;100.00;103862.91;4915617;29;20051;-78
2022/01/12 09:24:29;;;;;;;16.60;4.95;;;;;;;0.77;100.00;103860.34;4917860;29;20028;-78
2022/01/12 09:26:54;;;;;;;59.25;4.68;;;;;;;0.58;100.00;103850.06;4899740;29;20670;-78
2022/01/12 09:29:20;;;;;;;26.95;3.58;;;;;;;0.49;100.00;103862.28;4906843;29;20051;-78
2022/01/12 09:31:46;;;;;;;16.85;4.45;;;;;;;0.62;100.00;103866.50;4889022;29;20028;-78
2022/01/12 09:34:11;;;;;;;25.13;4.95;;;;;;;0.59;100.00;103861.34;4920969;29;20050;-77
2022/01/12 09:36:37;;;;;;;103.85;24.63;;;;;;;0.78;100.00;103859.44;4923881;29;20036;-77
2022/01/12 09:39:02;;;;;;;59.40;11.45;;;;;;;0.73;100.00;103864.69;4883479;29;20491;-77
2022/01/12 09:41:28;;;;;;;32.25;5.43;;;;;;;0.89;100.00;103878.41;4905526;29;20048;-77
2022/01/12 09:43:55;;;;;;;57.00;5.68;;;;;;;0.84;100.00;103875.00;4910883;29;20059;-77
2022/01/12 09:46:25;;;;;;;18.73;4.15;;;;;;;0.95;100.00;103882.72;4892911;29;20048;-77
2022/01/12 09:48:51;;;;;;;39.55;5.38;;;;;;;0.99;100.00;103876.63;4904835;29;20120;-77
2022/01/12 09:51:17;;;;;;;10.68;4.60;;;;;;;1.04;100.00;103882.63;4904229;29;20131;-77
2022/01/12 09:53:43;;;;;;;24.85;3.90;;;;;;;0.92;100.00;103860.19;4917112;29;20032;-77
2022/01/12 09:56:18;;;;;;;22.23;4.85;;;;;;;1.13;100.00;103887.78;4917595;29;20036;-77
2022/01/12 09:58:44;;;;;;;29.02;4.22;;;;;;;1.10;100.00;103890.38;4924208;29;20666;-77
2022/01/12 10:01:11;;;;;;;10.65;2.78;;;;;;;1.14;100.00;103889.47;4898394;29;20095;-77
2022/01/12 10:03:37;;;;;;;12.70;3.65;;;;;;;1.16;100.00;103895.53;4906529;29;20050;-77
2022/01/12 10:06:20;;;;;;;28.65;4.25;;;;;;;1.34;100.00;103899.69;4928931;29;20031;-77
2022/01/12 10:08:46;;;;;;;21.50;3.75;;;;;;;1.70;100.00;103901.91;4922091;29;20039;-77
2022/01/12 10:11:14;;;;;;;19.38;3.33;;;;;;;1.76;100.00;103888.84;4927309;29;20364;-77
2022/01/12 10:13:41;;;;;;;10.20;2.75;;;;;;;2.04;100.00;103892.81;4912673;29;20028;-77
2022/01/12 10:16:12;;;;;;;29.90;4.85;;;;;;;2.15;100.00;103904.84;4911978;29;20596;-77
2022/01/12 10:18:52;;;;;;;21.25;3.05;;;;;;;2.27;100.00;103904.69;4894303;29;20043;-77
2022/01/12 10:21:40;;;;;;;20.80;3.38;;;;;;;2.35;100.00;103876.78;4919859;29;20133;-77
2022/01/12 10:24:05;;;;;;;29.20;4.60;;;;;;;2.65;100.00;103892.84;4926713;29;20083;-77
2022/01/12 10:26:37;;;;;;;28.75;4.00;;;;;;;2.63;100.00;103886.78;4922218;29;20391;-79
2022/01/12 10:29:05;;;;;;;15.32;4.18;;;;;;;2.73;100.00;103871.88;4925060;29;20415;-79
2022/01/12 10:31:57;;;;;;;46.50;5.18;;;;;;;2.87;100.00;103881.19;4917413;29;20055;-80
2022/01/12 10:34:25;;;;;;;23.88;3.03;;;;;;;3.25;100.00;103882.28;4916594;29;20419;-79
2022/01/12 10:36:52;;;;;;;25.85;3.53;;;;;;;3.23;100.00;103876.22;4915847;29;20075;-80
2022/01/12 10:39:18;;;;;;;18.85;2.05;;;;;;;3.36;100.00;103873.38;4881778;29;20032;-79
2022/01/12 10:42:07;;;;;;;6.72;2.17;;;;;;;3.57;100.00;103880.81;4924547;29;20461;-80
2022/01/12 10:44:38;;;;;;;20.50;2.58;;;;;;;3.39;100.00;103862.88;4920470;29;20072;-80
2022/01/12 10:47:14;;;;;;;8.88;2.08;;;;;;;3.34;100.00;103881.25;4929818;29;20028;-80
2022/01/12 10:49:53;;;;;;;5.15;2.17;;;;;;;3.35;100.00;103882.09;4921124;29;20035;-79
2022/01/12 10:52:20;;;;;;;4.95;2.20;;;;;;;3.39;100.00;103865.47;4906745;29;20036;-79
2022/01/12 10:54:55;;;;;;;8.07;2.28;;;;;;;3.42;100.00;103863.69;4909981;29;20028;-80
2022/01/12 10:57:39;;;;;;;8.07;2.83;;;;;;;3.54;100.00;103872.16;4923558;29;20031;-79
2022/01/12 11:00:18;;;;;;;10.57;4.05;;;;;;;3.62;100.00;103871.13;4913152;29;20076;-79
2022/01/12 11:02:52;;;;;;;5.60;3.92;;;;;;;3.50;100.00;103876.59;4906503;29;20404;-79
2022/01/12 11:05:20;;;;;;;71.85;21.77;;;;;;;3.35;100.00;103866.44;4918924;29;20035;-80
2022/01/12 11:07:45;;;;;;;12.57;4.07;;;;;;;3.63;100.00;103877.22;4912240;29;20511;-79
2022/01/12 11:10:12;;;;;;;8.63;3.75;;;;;;;3.79;100.00;103877.75;4927130;29;20028;-79
2022/01/12 11:12:39;;;;;;;6.68;3.58;;;;;;;3.92;100.00;103855.72;4913899;29;20162;-80
2022/01/12 11:15:16;;;;;;;11.35;5.57;;;;;;;3.98;100.00;103850.34;4914157;29;20031;-79
2022/01/12 11:17:44;;;;;;;9.80;7.03;;;;;;;4.13;100.00;103855.22;4922888;29;20838;-79
2022/01/12 11:20:17;;;;;;;7.55;3.90;;;;;;;4.07;100.00;103847.56;4924966;29;20023;-80
2022/01/12 11:23:03;;;;;;;8.52;2.83;;;;;;;4.06;100.00;103858.03;4913558;29;20040;-80
2022/01/12 11:25:50;;;;;;;8.88;5.43;;;;;;;4.01;100.00;103858.13;4903548;29;20020;-80
2022/01/12 11:28:36;;;;;;;7.60;4.38;;;;;;;3.77;100.00;103838.63;4905838;29;20054;-79
2022/01/12 11:31:03;;;;;;;4.45;3.15;;;;;;;3.86;100.00;103845.41;4897210;29;20036;-79
2022/01/12 11:33:31;;;;;;;11.25;4.78;;;;;;;3.95;100.00;103842.56;4914406;29;20028;-80
2022/01/12 11:36:02;;;;;;;12.77;4.43;;;;;;;3.95;100.00;103831.28;4915465;29;20028;-79
2022/01/12 11:38:36;;;;;;;7.78;4.50;;;;;;;3.95;100.00;103834.75;4918226;29;20053;-80
2022/01/12 11:41:13;;;;;;;7.70;4.97;;;;;;;3.85;100.00;103810.53;4918218;29;20039;-79
2022/01/12 11:43:54;;;;;;;16.23;3.88;;;;;;;4.15;100.00;103833.44;4902235;29;20043;-79
2022/01/12 11:46:23;;;;;;;12.25;4.53;;;;;;;4.13;100.00;103821.25;4916533;29;20503;-80
2022/01/12 11:48:57;;;;;;;5.80;3.75;;;;;;;4.33;100.00;103833.88;4902673;29;20039;-80
2022/01/12 11:51:41;;;;;;;11.32;4.40;;;;;;;4.36;100.00;103827.72;4916540;29;20114;-79
2022/01/12 11:54:12;;;;;;;8.88;5.55;;;;;;;4.52;100.00;103849.13;4918709;29;20039;-79
2022/01/12 11:57:00;;;;;;;7.90;4.28;;;;;;;4.38;100.00;103823.31;4923098;29;20135;-79
2022/01/12 11:59:31;;;;;;;8.82;4.30;;;;;;;4.71;100.00;103865.25;4905681;29;20024;-79
2022/01/12 12:02:14;;;;;;;10.38;3.80;;;;;;;4.72;100.00;103861.72;4903249;29;20369;-80
2022/01/12 12:04:52;;;;;;;18.98;5.90;;;;;;;4.63;100.00;103862.78;4917340;29;20421;-79
2022/01/12 12:07:18;;;;;;;13.32;4.25;;;;;;;4.76;100.00;103889.53;4919479;29;20035;-80
2022/01/12 12:09:58;;;;;;;5.07;3.42;;;;;;;4.90;100.00;103886.56;4907149;29;20696;-79
2022/01/12 12:12:28;;;;;;;11.02;4.35;;;;;;;4.74;100.00;103859.91;4900797;29;20036;-79
2022/01/12 12:14:57;;;;;;;9.35;4.40;;;;;;;4.83;100.00;103885.84;4921226;29;20059;-80
2022/01/12 12:17:25;;;;;;;38.88;4.88;;;;;;;4.73;100.00;103858.22;4919582;29;20035;-80
2022/01/12 12:19:51;;;;;;;9.88;4.60;;;;;;;4.74;100.00;103852.06;4915983;29;20020;-79
2022/01/12 12:22:29;;;;;;;9.48;4.88;;;;;;;4.80;100.00;103869.38;4902679;29;20047;-79
2022/01/12 12:25:09;;;;;;;12.50;4.78;;;;;;;4.76;100.00;103878.22;4917062;29;20102;-79
2022/01/12 12:27:36;;;;;;;7.93;4.63;;;;;;;4.79;100.00;103871.16;4920408;29;20028;-80
2022/01/12 12:30:04;;;;;;;33.65;5.88;;;;;;;4.61;100.00;103853.28;4901894;29;20065;-80
2022/01/12 12:32:48;;;;;;;19.05;5.40;;;;;;;4.70;100.00;103859.16;4901741;29;20059;-79
2022/01/12 12:35:26;;;;;;;14.27;6.07;;;;;;;4.63;100.00;103831.41;4916213;29;20036;-80
2022/01/12 12:37:54;;;;;;;21.27;5.85;;;;;;;4.80;100.00;103859.78;4919411;29;20039;-80
2022/01/12 12:40:27;;;;;;;14.95;5.28;;;;;;;4.97;100.00;103858.50;4899426;29;20028;-80
2022/01/12 12:43:06;;;;;;;29.55;5.47;;;;;;;5.03;100.00;103855.69;4920015;29;20388;-80